Cairns Corner, California
Current Conditions -  °F | °C
As of 6:35 PM on Thursday 20 Nov 2014 (Local Time) from KPTV Reporting Station
Overcast Overcast  
Wind Chill: 57°   Ceiling: 7000
Heat Index: 57°   Visibility: 10mi
Dew Point: 46°   Wind: 0mph
Humidity: 67%   Direction: NA
Pressure: 30.04"   Gusts: NA
Location:  36.2085°N, 119.068°W
Report Text: KPTV 210235Z AUTO 00000KT 10SM FEW047 BKN070 OVC120 14/08 A3004 RMK AO1
Loading
Personal Weather Stations






























Interactive Weather Map New forecast layout! Learn more

10-Day Weather Forecast

Advertisements
Track Severe Weather on mobile